Terminal Aerodrome Forecast
Issued by NWS Shreveport, LA

Home | Current Version | Previous Version | Text Only | Print | Product List | Glossary On
Versions: 1 2 3 4 5 6 7 8 9 10 11 12
000
FTUS44 KSHV 202300 RRA
TAFTYR
TAF
KTYR 202348Z 2100/2124 05005KT P6SM SCT250
     FM210100 13003KT P6SM SKC
     FM211400 15006KT P6SM SKC
     FM211800 11005KT P6SM SCT045=

USA.gov is the U.S. government's official web portal to all federal, state and local government web resources and services.